createdAt,value
2022-08-26T00:03:27.024Z,22.00
2022-08-26T00:09:29.293Z,26.38
2022-08-26T00:15:30.808Z,22.10
2022-08-26T00:21:32.534Z,30.73
2022-08-26T00:27:34.106Z,22.65
2022-08-26T00:33:36.147Z,26.97
2022-08-26T00:39:37.604Z,19.80
2022-08-26T00:45:44.408Z,24.42
2022-08-26T00:51:49.138Z,19.30
2022-08-26T00:57:51.106Z,25.38
2022-08-26T01:03:53.585Z,20.97
2022-08-26T01:09:57.279Z,25.42
2022-08-26T01:16:00.737Z,23.83
2022-08-26T01:22:09.942Z,22.23
2022-08-26T01:28:14.468Z,25.52
2022-08-26T01:34:21.326Z,27.47
2022-08-26T01:40:25.614Z,27.23
2022-08-26T01:46:28.238Z,20.45
2022-08-26T01:52:31.394Z,22.43
2022-08-26T01:58:35.075Z,25.77
2022-08-26T02:04:39.695Z,21.63
2022-08-26T02:10:42.150Z,21.25
2022-08-26T02:16:45.549Z,25.08
2022-08-26T02:22:47.277Z,26.27
2022-08-26T02:29:07.561Z,26.80
2022-08-26T02:35:09.695Z,24.60
2022-08-26T02:41:11.278Z,24.50
2022-08-26T02:47:13.662Z,24.38
2022-08-26T02:53:15.567Z,25.57
2022-08-26T02:59:17.899Z,24.40
2022-08-26T03:05:20.321Z,23.13
2022-08-26T03:11:22.385Z,24.45
2022-08-26T03:17:23.847Z,20.85
2022-08-26T03:23:28.444Z,21.87
2022-08-26T03:29:49.587Z,25.80
2022-08-26T03:35:52.625Z,27.00
2022-08-26T03:41:55.337Z,23.58
2022-08-26T03:47:57.884Z,28.17
2022-08-26T03:54:00.669Z,25.50
2022-08-26T04:00:02.349Z,25.60
2022-08-26T04:06:10.189Z,26.07
2022-08-26T04:12:12.913Z,30.10
2022-08-26T04:18:14.401Z,26.38
2022-08-26T04:24:16.339Z,26.87
2022-08-26T04:30:20.016Z,28.90
2022-08-26T04:36:21.499Z,27.37
2022-08-26T04:42:26.034Z,27.58
2022-08-26T04:48:28.536Z,27.50
2022-08-26T04:54:30.494Z,36.53
2022-08-26T05:00:32.857Z,30.77
2022-08-26T05:06:36.831Z,24.67
2022-08-26T05:12:38.714Z,37.25
2022-08-26T05:18:40.921Z,27.40
2022-08-26T05:24:46.375Z,27.90
2022-08-26T05:30:48.537Z,32.33
2022-08-26T05:36:50.537Z,31.97
2022-08-26T05:42:52.948Z,28.00
2022-08-26T05:48:55.369Z,30.83
2022-08-26T05:54:57.030Z,34.57
2022-08-26T06:01:06.747Z,31.08
2022-08-26T06:07:09.930Z,36.00
2022-08-26T06:13:13.849Z,31.23
2022-08-26T06:19:15.642Z,34.88
2022-08-26T06:25:37.507Z,34.17
2022-08-26T06:31:40.044Z,31.77
2022-08-26T06:37:42.793Z,33.67
2022-08-26T06:43:44.445Z,33.47
2022-08-26T06:49:45.979Z,32.00
2022-08-26T06:55:47.474Z,30.40
2022-08-26T07:01:54.573Z,35.13
2022-08-26T07:07:57.761Z,37.97
2022-08-26T07:13:59.362Z,31.48
2022-08-26T07:20:03.409Z,35.03
2022-08-26T07:26:07.234Z,31.37
2022-08-26T07:32:09.987Z,28.77
2022-08-26T07:38:11.726Z,32.17
2022-08-26T07:44:14.988Z,32.75
2022-08-26T07:50:16.578Z,40.80
2022-08-26T07:56:18.065Z,28.07
2022-08-26T08:02:19.549Z,29.33
2022-08-26T08:08:27.715Z,25.83
2022-08-26T08:14:31.003Z,28.50
2022-08-26T08:20:33.095Z,30.15
2022-08-26T08:26:35.263Z,27.57
2022-08-26T08:32:40.358Z,24.65
2022-08-26T08:38:42.364Z,27.55
2022-08-26T08:44:52.175Z,25.50
2022-08-26T08:50:55.731Z,27.85
2022-08-26T08:57:01.419Z,29.43
2022-08-26T09:03:06.015Z,28.80
2022-08-26T09:09:08.158Z,29.52
2022-08-26T09:15:30.426Z,23.80
2022-08-26T09:21:32.619Z,25.02
2022-08-26T09:27:44.847Z,26.90
2022-08-26T09:33:46.329Z,23.10
2022-08-26T09:39:47.830Z,26.88
2022-08-26T09:45:58.376Z,28.80
2022-08-26T09:52:07.177Z,20.60
2022-08-26T09:58:12.979Z,21.80
2022-08-26T10:04:22.577Z,24.55
2022-08-26T10:10:31.544Z,24.38
2022-08-26T10:16:52.573Z,22.33
2022-08-26T10:23:00.630Z,22.75
2022-08-26T10:29:08.901Z,23.07
2022-08-26T10:35:12.090Z,22.95
2022-08-26T10:41:15.859Z,19.27
2022-08-26T10:47:26.015Z,19.27
2022-08-26T10:53:28.187Z,19.88
2022-08-26T10:59:37.127Z,23.30
2022-08-26T11:05:38.584Z,18.20
2022-08-26T11:11:40.678Z,18.83
2022-08-26T11:17:45.507Z,17.83
2022-08-26T11:23:50.510Z,17.55
2022-08-26T11:30:04.796Z,15.37
2022-08-26T11:36:12.015Z,18.45
2022-08-26T11:42:27.779Z,19.27
2022-08-26T11:48:34.825Z,18.73
2022-08-26T11:54:36.310Z,17.90
2022-08-26T12:00:49.159Z,18.90
2022-08-26T12:06:51.521Z,19.77
2022-08-26T12:12:57.963Z,11.90
2022-08-26T12:18:59.989Z,10.47
2022-08-26T12:25:05.130Z,14.25
2022-08-26T12:31:07.003Z,14.10
2022-08-26T12:37:10.284Z,14.75
2022-08-26T12:43:15.834Z,16.25
2022-08-26T12:49:18.486Z,16.07
2022-08-26T12:55:24.659Z,17.45
2022-08-26T13:01:26.229Z,17.43
2022-08-26T13:07:27.824Z,16.52
2022-08-26T13:13:29.556Z,20.17
2022-08-26T13:19:31.287Z,15.33
2022-08-26T13:25:32.797Z,23.25
2022-08-26T13:31:35.807Z,25.03
2022-08-26T13:37:38.582Z,19.13
2022-08-26T13:43:42.933Z,19.48
2022-08-26T13:49:44.524Z,25.77
2022-08-26T13:55:45.994Z,22.65
2022-08-26T14:01:47.893Z,22.13
2022-08-26T14:07:49.442Z,18.38
2022-08-26T14:13:51.012Z,18.75
2022-08-26T14:19:52.594Z,20.87
2022-08-26T14:25:54.338Z,21.35
2022-08-26T14:31:56.606Z,18.07
2022-08-26T14:37:58.079Z,14.07
2022-08-26T14:44:01.740Z,18.33
2022-08-26T14:50:04.429Z,13.43
2022-08-26T14:56:06.047Z,14.15
2022-08-26T15:02:08.900Z,14.10
2022-08-26T15:08:15.870Z,14.68
2022-08-26T15:14:19.338Z,17.90
2022-08-26T15:20:21.578Z,15.40
2022-08-26T15:26:23.531Z,14.95
2022-08-26T15:32:24.994Z,12.73
2022-08-26T15:38:28.962Z,12.50
2022-08-26T15:44:30.459Z,14.63
2022-08-26T15:50:31.944Z,11.73
2022-08-26T15:56:34.853Z,12.40
2022-08-26T16:02:36.704Z,14.13
2022-08-26T16:08:38.325Z,15.10
2022-08-26T16:14:40.469Z,14.40
2022-08-26T16:21:12.391Z,10.33
2022-08-26T16:27:14.000Z,12.00
2022-08-26T16:33:15.658Z,12.20
2022-08-26T16:39:31.153Z,11.60
2022-08-26T16:45:32.703Z,14.90
2022-08-26T16:51:38.137Z,16.70
2022-08-26T16:57:41.732Z,9.55
2022-08-26T17:03:44.975Z,10.77
2022-08-26T17:09:46.499Z,12.60
2022-08-26T17:15:54.033Z,14.05
2022-08-26T17:21:59.824Z,13.50
2022-08-26T17:28:01.325Z,12.63
2022-08-26T17:34:03.504Z,11.97
2022-08-26T17:40:06.326Z,10.63
2022-08-26T17:46:08.831Z,16.00
2022-08-26T17:52:11.645Z,15.13
2022-08-26T17:58:14.716Z,14.50
2022-08-26T18:04:16.412Z,15.57
2022-08-26T18:10:18.990Z,12.60
2022-08-26T18:16:20.555Z,12.55
2022-08-26T18:22:23.166Z,12.57
2022-08-26T18:28:24.635Z,14.02
2022-08-26T18:34:26.191Z,9.33
2022-08-26T18:40:33.410Z,12.00
2022-08-26T18:46:34.994Z,8.05
2022-08-26T18:52:36.650Z,13.43
2022-08-26T18:58:38.135Z,14.35
2022-08-26T19:04:39.647Z,13.27
2022-08-26T19:10:41.401Z,16.15
2022-08-26T19:16:45.654Z,15.35
2022-08-26T19:22:47.227Z,15.33
2022-08-26T19:28:49.358Z,15.57
2022-08-26T19:34:51.414Z,14.83
2022-08-26T19:40:52.862Z,16.98
2022-08-26T19:46:54.329Z,14.93
2022-08-26T19:52:55.838Z,15.23
2022-08-26T19:58:57.490Z,11.80
2022-08-26T20:04:59.336Z,17.10
2022-08-26T20:11:05.290Z,12.10
2022-08-26T20:17:06.941Z,14.07
2022-08-26T20:23:08.687Z,11.90
2022-08-26T20:29:11.456Z,13.60
2022-08-26T20:35:13.622Z,15.57
2022-08-26T20:41:15.442Z,13.73
2022-08-26T20:47:16.930Z,11.38
2022-08-26T20:53:18.649Z,10.83
2022-08-26T20:59:21.315Z,11.95
2022-08-26T21:05:23.631Z,11.43
2022-08-26T21:11:26.198Z,11.40
2022-08-26T21:17:27.660Z,12.63
2022-08-26T21:23:29.401Z,11.83
2022-08-26T21:29:30.955Z,12.52
2022-08-26T21:35:32.486Z,12.97
2022-08-26T21:41:34.048Z,11.23
2022-08-26T21:47:36.351Z,13.52
2022-08-26T21:53:38.071Z,12.77
2022-08-26T21:59:39.524Z,13.48
2022-08-26T22:05:44.465Z,10.87
2022-08-26T22:11:47.384Z,12.48
2022-08-26T22:17:48.983Z,11.05
2022-08-26T22:23:50.574Z,12.57
2022-08-26T22:29:52.119Z,15.45
2022-08-26T22:35:54.011Z,11.77
2022-08-26T22:41:56.790Z,14.13
2022-08-26T22:47:59.355Z,12.73
2022-08-26T22:54:00.804Z,15.23
2022-08-26T23:00:02.469Z,12.88
2022-08-26T23:06:10.092Z,14.40
2022-08-26T23:12:11.597Z,12.02
2022-08-26T23:18:14.112Z,13.77
2022-08-26T23:24:17.222Z,13.33
2022-08-26T23:30:21.043Z,13.85
2022-08-26T23:36:22.886Z,13.17
2022-08-26T23:42:25.269Z,14.68
2022-08-26T23:48:30.727Z,13.50
2022-08-26T23:54:32.726Z,16.37
